createdAt,value
2019-03-31T00:01:52.807Z,1008.33
2019-03-31T00:06:53.679Z,1008.33
2019-03-31T00:11:54.238Z,1008.32
2019-03-31T00:16:54.734Z,1008.28
2019-03-31T00:21:55.200Z,1008.38
2019-03-31T00:26:55.791Z,1008.34
2019-03-31T00:31:56.293Z,1008.30
2019-03-31T00:36:57.153Z,1008.33
2019-03-31T00:41:57.750Z,1008.31
2019-03-31T00:46:58.228Z,1008.27
2019-03-31T00:51:58.830Z,1008.29
2019-03-31T00:56:59.306Z,1008.31
2019-03-31T01:01:59.948Z,1008.18
2019-03-31T01:07:00.369Z,1008.17
2019-03-31T01:12:01.061Z,1008.26
2019-03-31T01:17:01.729Z,1008.19
2019-03-31T01:22:02.379Z,1008.16
2019-03-31T01:27:03.005Z,1008.09
2019-03-31T01:32:03.622Z,1008.12
2019-03-31T01:37:04.109Z,1008.16
2019-03-31T01:42:04.745Z,1008.20
2019-03-31T01:47:05.401Z,1008.19
2019-03-31T01:52:05.973Z,1008.19
2019-03-31T01:57:06.483Z,1008.19
2019-03-31T02:02:06.943Z,1008.14
2019-03-31T02:07:07.769Z,1008.26
2019-03-31T02:12:08.376Z,1008.26
2019-03-31T02:17:08.839Z,1008.30
2019-03-31T02:22:09.334Z,1008.27
2019-03-31T02:27:09.939Z,1008.27
2019-03-31T02:32:23.612Z,1008.21
2019-03-31T02:37:10.855Z,1008.26
2019-03-31T02:42:11.328Z,1008.22
2019-03-31T02:47:11.929Z,1008.19
2019-03-31T02:52:12.583Z,1008.19
2019-03-31T02:57:13.236Z,1008.19
2019-03-31T03:02:14.089Z,1008.15
2019-03-31T03:07:14.719Z,1008.21
2019-03-31T03:12:15.214Z,1008.26
2019-03-31T03:17:15.906Z,1008.24
2019-03-31T03:22:16.516Z,1008.27
2019-03-31T03:27:17.370Z,1008.20
2019-03-31T03:32:17.973Z,1008.25
2019-03-31T03:37:18.634Z,1008.37
2019-03-31T03:42:19.268Z,1008.35
2019-03-31T03:47:19.833Z,1008.39
2019-03-31T03:52:20.500Z,1008.41
2019-03-31T03:57:21.237Z,1008.37
2019-03-31T04:02:21.883Z,1008.35
2019-03-31T04:07:22.530Z,1008.40
2019-03-31T04:12:23.481Z,1008.42
2019-03-31T04:17:24.460Z,1008.42
2019-03-31T04:22:25.035Z,1008.48
2019-03-31T04:27:25.756Z,1008.50
2019-03-31T04:32:26.496Z,1008.63
2019-03-31T04:37:27.005Z,1008.67
2019-03-31T04:42:27.618Z,1008.63
2019-03-31T04:47:28.044Z,1008.74
2019-03-31T04:52:28.578Z,1008.70
2019-03-31T04:57:29.215Z,1008.77
2019-03-31T05:02:30.087Z,1008.81
2019-03-31T05:07:30.947Z,1008.83
2019-03-31T05:12:31.586Z,1008.95
2019-03-31T05:17:35.529Z,1009.01
2019-03-31T05:22:32.696Z,1009.02
2019-03-31T05:27:33.129Z,1009.10
2019-03-31T05:32:33.757Z,1009.08
2019-03-31T05:37:34.465Z,1009.11
2019-03-31T05:42:35.058Z,1009.11
2019-03-31T05:47:35.659Z,1009.14
2019-03-31T05:52:36.153Z,1009.16
2019-03-31T05:57:36.568Z,1009.16
2019-03-31T06:02:37.043Z,1009.22
2019-03-31T06:07:37.484Z,1009.21
2019-03-31T06:12:38.373Z,1009.26
2019-03-31T06:17:39.198Z,1009.29
2019-03-31T06:22:39.780Z,1009.25
2019-03-31T06:27:40.495Z,1009.22
2019-03-31T06:32:41.334Z,1009.25
2019-03-31T06:37:42.151Z,1009.27
2019-03-31T06:42:42.826Z,1009.31
2019-03-31T06:47:43.685Z,1009.43
2019-03-31T06:52:44.349Z,1009.43
2019-03-31T06:57:45.354Z,1009.55
2019-03-31T07:02:46.254Z,1009.56
2019-03-31T07:07:47.294Z,1009.60
2019-03-31T07:12:48.215Z,1009.66
2019-03-31T07:17:49.004Z,1009.64
2019-03-31T07:22:50.761Z,1009.76
2019-03-31T07:27:51.585Z,1009.86
2019-03-31T07:32:52.697Z,1009.94
2019-03-31T07:37:53.549Z,1009.91
2019-03-31T07:42:54.637Z,1009.92
2019-03-31T07:47:55.616Z,1009.98
2019-03-31T07:52:56.322Z,1010.12
2019-03-31T07:57:56.877Z,1010.20
2019-03-31T08:03:00.132Z,1010.29
2019-03-31T08:07:59.079Z,1010.39
2019-03-31T08:12:59.658Z,1010.43
2019-03-31T08:18:00.259Z,1010.43
2019-03-31T08:23:00.710Z,1010.57
2019-03-31T08:28:01.396Z,1010.52
2019-03-31T08:33:02.020Z,1010.58
2019-03-31T08:38:02.647Z,1010.54
2019-03-31T08:43:03.073Z,1010.56
2019-03-31T08:48:03.548Z,1010.57
2019-03-31T08:53:04.335Z,1010.51
2019-03-31T08:58:04.896Z,1010.54
2019-03-31T09:03:05.496Z,1010.55
2019-03-31T09:08:06.248Z,1010.57
2019-03-31T09:13:06.788Z,1010.57
2019-03-31T09:18:07.247Z,1010.54
2019-03-31T09:23:07.991Z,1010.58
2019-03-31T09:28:09.772Z,1010.64
2019-03-31T09:33:10.442Z,1010.64
2019-03-31T09:38:11.280Z,1010.67
2019-03-31T09:43:11.905Z,1010.64
2019-03-31T09:48:12.591Z,1010.72
2019-03-31T09:53:13.207Z,1010.63
2019-03-31T09:58:13.849Z,1010.79
2019-03-31T10:03:14.315Z,1010.69
2019-03-31T10:08:14.776Z,1010.81
2019-03-31T10:13:15.529Z,1010.84
2019-03-31T10:18:18.111Z,1010.74
2019-03-31T10:23:16.781Z,1010.85
2019-03-31T10:28:17.279Z,1010.92
2019-03-31T10:33:17.870Z,1010.94
2019-03-31T10:38:18.322Z,1010.98
2019-03-31T10:43:18.845Z,1010.95
2019-03-31T10:48:21.201Z,1011.03
2019-03-31T10:53:20.067Z,1011.01
2019-03-31T10:58:20.972Z,1010.93
2019-03-31T11:03:21.760Z,1010.86
2019-03-31T11:08:22.445Z,1010.82
2019-03-31T11:13:23.272Z,1010.80
2019-03-31T11:18:23.958Z,1010.81
2019-03-31T11:23:24.734Z,1010.81
2019-03-31T11:28:25.230Z,1010.82
2019-03-31T11:33:25.875Z,1010.87
2019-03-31T11:38:26.564Z,1010.87
2019-03-31T11:43:27.165Z,1010.92
2019-03-31T11:48:27.714Z,1010.89
2019-03-31T11:53:28.281Z,1010.89
2019-03-31T11:58:32.141Z,1010.98
2019-03-31T12:03:30.934Z,1011.00
2019-03-31T12:08:30.230Z,1010.97
2019-03-31T12:13:31.097Z,1010.97
2019-03-31T12:18:31.943Z,1010.86
2019-03-31T12:23:32.544Z,1010.97
2019-03-31T12:28:33.017Z,1010.93
2019-03-31T12:33:33.927Z,1010.84
2019-03-31T12:38:34.724Z,1010.85
2019-03-31T12:43:35.665Z,1010.78
2019-03-31T12:48:36.229Z,1010.77
2019-03-31T12:53:36.973Z,1010.71
2019-03-31T12:58:37.533Z,1010.75
2019-03-31T13:03:38.216Z,1010.69
2019-03-31T13:08:39.042Z,1010.60
2019-03-31T13:13:39.905Z,1010.57
2019-03-31T13:18:40.782Z,1010.53
2019-03-31T13:23:41.389Z,1010.55
2019-03-31T13:28:42.265Z,1010.46
2019-03-31T13:33:43.071Z,1010.48
2019-03-31T13:38:43.718Z,1010.46
2019-03-31T13:43:44.129Z,1010.47
2019-03-31T13:48:44.622Z,1010.44
2019-03-31T13:53:45.249Z,1010.35
2019-03-31T13:58:52.442Z,1010.35
2019-03-31T14:03:46.143Z,1010.24
2019-03-31T14:08:46.593Z,1010.26
2019-03-31T14:13:47.243Z,1010.19
2019-03-31T14:18:47.872Z,1010.21
2019-03-31T14:23:48.362Z,1010.23
2019-03-31T14:28:48.818Z,1010.23
2019-03-31T14:33:49.427Z,1010.19
2019-03-31T14:38:50.082Z,1010.13
2019-03-31T14:43:50.533Z,1010.10
2019-03-31T14:48:51.172Z,1010.12
2019-03-31T14:53:51.548Z,1010.11
2019-03-31T14:58:51.996Z,1010.10
2019-03-31T15:03:52.560Z,1010.05
2019-03-31T15:08:54.611Z,1010.11
2019-03-31T15:13:53.605Z,1010.11
2019-03-31T15:18:54.283Z,1010.05
2019-03-31T15:23:54.902Z,1010.00
2019-03-31T15:28:55.448Z,1010.08
2019-03-31T15:33:56.224Z,1010.10
2019-03-31T15:39:08.166Z,1010.01
2019-03-31T15:43:57.387Z,1010.06
2019-03-31T15:48:58.011Z,1010.10
2019-03-31T15:53:58.573Z,1010.12
2019-03-31T15:58:59.017Z,1010.11
2019-03-31T16:03:59.432Z,1010.11
2019-03-31T16:09:00.079Z,1010.13
2019-03-31T16:14:00.589Z,1010.14
2019-03-31T16:19:01.246Z,1010.08
2019-03-31T16:24:01.863Z,1010.18
2019-03-31T16:29:02.483Z,1010.11
2019-03-31T16:34:03.070Z,1010.12
2019-03-31T16:39:03.906Z,1010.10
2019-03-31T16:44:04.486Z,1010.16
2019-03-31T16:49:05.100Z,1010.20
2019-03-31T16:54:05.987Z,1010.14
2019-03-31T16:59:06.803Z,1010.23
2019-03-31T17:04:07.310Z,1010.29
2019-03-31T17:09:07.925Z,1010.22
2019-03-31T17:14:08.644Z,1010.34
2019-03-31T17:19:10.359Z,1010.29
2019-03-31T17:24:10.983Z,1010.28
2019-03-31T17:29:11.639Z,1010.34
2019-03-31T17:34:12.255Z,1010.30
2019-03-31T17:39:12.912Z,1010.33
2019-03-31T17:44:13.962Z,1010.25
2019-03-31T17:49:14.615Z,1010.31
2019-03-31T17:54:18.751Z,1010.37
2019-03-31T17:59:15.815Z,1010.44
2019-03-31T18:04:16.349Z,1010.41
2019-03-31T18:09:16.986Z,1010.50
2019-03-31T18:14:17.424Z,1010.46
2019-03-31T18:19:17.974Z,1010.55
2019-03-31T18:24:18.418Z,1010.60
2019-03-31T18:29:20.012Z,1010.64
2019-03-31T18:34:20.575Z,1010.80
2019-03-31T18:39:21.099Z,1010.87
2019-03-31T18:44:22.163Z,1010.99
2019-03-31T18:49:22.997Z,1011.02
2019-03-31T18:54:23.848Z,1011.16
2019-03-31T18:59:24.555Z,1011.14
2019-03-31T19:04:25.130Z,1011.15
2019-03-31T19:09:25.622Z,1011.14
2019-03-31T19:14:26.635Z,1011.19
2019-03-31T19:19:27.528Z,1011.18
2019-03-31T19:24:28.280Z,1011.18
2019-03-31T19:29:29.047Z,1011.14
2019-03-31T19:34:29.689Z,1011.21
2019-03-31T19:39:30.602Z,1011.26
2019-03-31T19:44:31.373Z,1011.24
2019-03-31T19:49:31.797Z,1011.31
2019-03-31T19:54:32.517Z,1011.35
2019-03-31T19:59:33.222Z,1011.37
2019-03-31T20:04:33.759Z,1011.29
2019-03-31T20:09:34.403Z,1011.38
2019-03-31T20:14:35.066Z,1011.42
2019-03-31T20:19:35.943Z,1011.37
2019-03-31T20:24:36.554Z,1011.46
2019-03-31T20:29:36.993Z,1011.53
2019-03-31T20:34:37.862Z,1011.51
2019-03-31T20:39:38.537Z,1011.56
2019-03-31T20:44:39.339Z,1011.50
2019-03-31T20:49:40.232Z,1011.55
2019-03-31T20:54:40.801Z,1011.47
2019-03-31T20:59:41.616Z,1011.42
2019-03-31T21:04:42.166Z,1011.38
2019-03-31T21:09:45.050Z,1011.45
2019-03-31T21:14:44.272Z,1011.53
2019-03-31T21:19:44.766Z,1011.49
2019-03-31T21:24:45.195Z,1011.52
2019-03-31T21:29:45.983Z,1011.56
2019-03-31T21:34:46.645Z,1011.45
2019-03-31T21:39:47.075Z,1011.49
2019-03-31T21:44:47.555Z,1011.51
2019-03-31T21:49:48.197Z,1011.50
2019-03-31T21:54:48.817Z,1011.51
2019-03-31T21:59:49.476Z,1011.52
2019-03-31T22:04:49.982Z,1011.54
2019-03-31T22:09:50.605Z,1011.52
2019-03-31T22:17:58.636Z,1011.46
2019-03-31T22:45:22.319Z,1011.34
2019-03-31T22:50:22.384Z,1011.41
2019-03-31T22:55:27.386Z,1011.35
